createdAt,value
2018-02-02T00:00:50.857Z,0.60
2018-02-02T00:03:18.527Z,1.37
2018-02-02T00:05:46.288Z,1.40
2018-02-02T00:08:14.128Z,0.70
2018-02-02T00:10:41.828Z,2.00
2018-02-02T00:13:09.916Z,2.40
2018-02-02T00:15:37.640Z,0.63
2018-02-02T00:18:05.344Z,0.60
2018-02-02T00:20:33.039Z,1.13
2018-02-02T00:23:00.906Z,0.57
2018-02-02T00:25:28.595Z,0.43
2018-02-02T00:27:56.948Z,0.60
2018-02-02T00:30:24.654Z,1.00
2018-02-02T00:32:52.418Z,1.37
2018-02-02T00:35:20.172Z,0.93
2018-02-02T00:37:47.914Z,1.10
2018-02-02T00:40:15.636Z,2.93
2018-02-02T00:42:43.376Z,1.40
2018-02-02T00:45:11.205Z,0.80
2018-02-02T00:47:39.122Z,3.40
2018-02-02T00:50:06.981Z,0.90
2018-02-02T00:52:34.715Z,0.87
2018-02-02T00:55:02.563Z,2.67
2018-02-02T00:57:30.276Z,0.60
2018-02-02T00:59:58.042Z,5.30
2018-02-02T01:02:25.773Z,0.97
2018-02-02T01:04:53.439Z,0.83
2018-02-02T01:07:21.146Z,1.27
2018-02-02T01:09:48.877Z,1.20
2018-02-02T01:12:16.641Z,1.40
2018-02-02T01:14:44.325Z,1.37
2018-02-02T01:17:12.092Z,2.20
2018-02-02T01:19:39.868Z,2.87
2018-02-02T01:22:07.657Z,0.60
2018-02-02T01:24:35.364Z,1.50
2018-02-02T01:27:03.163Z,1.00
2018-02-02T01:29:30.859Z,2.00
2018-02-02T01:31:58.611Z,2.90
2018-02-02T01:34:26.385Z,0.60
2018-02-02T01:36:54.071Z,0.80
2018-02-02T01:39:22.119Z,0.80
2018-02-02T01:41:49.893Z,2.83
2018-02-02T01:44:17.596Z,0.70
2018-02-02T01:46:45.398Z,2.87
2018-02-02T01:49:13.138Z,2.20
2018-02-02T01:51:40.944Z,2.47
2018-02-02T01:54:08.699Z,1.17
2018-02-02T01:56:36.364Z,1.77
2018-02-02T01:59:04.068Z,5.40
2018-02-02T02:01:31.842Z,1.23
2018-02-02T02:03:59.719Z,3.80
2018-02-02T02:06:27.433Z,2.80
2018-02-02T02:08:55.166Z,4.07
2018-02-02T02:11:22.834Z,1.93
2018-02-02T02:13:50.556Z,2.80
2018-02-02T02:16:18.340Z,2.30
2018-02-02T02:18:46.149Z,3.23
2018-02-02T02:21:13.836Z,2.23
2018-02-02T02:23:41.510Z,2.20
2018-02-02T02:26:09.306Z,2.77
2018-02-02T02:28:37.382Z,2.30
2018-02-02T02:31:05.089Z,4.93
2018-02-02T02:33:32.861Z,2.20
2018-02-02T02:36:00.564Z,7.60
2018-02-02T02:38:28.270Z,2.80
2018-02-02T02:40:56.137Z,3.60
2018-02-02T02:43:23.858Z,3.30
2018-02-02T02:45:51.521Z,3.57
2018-02-02T02:48:19.244Z,2.47
2018-02-02T02:50:46.979Z,2.83
2018-02-02T02:53:14.658Z,2.73
2018-02-02T02:55:42.346Z,3.00
2018-02-02T02:58:10.089Z,4.70
2018-02-02T03:00:37.865Z,5.67
2018-02-02T03:03:05.618Z,3.57
2018-02-02T03:05:33.399Z,5.67
2018-02-02T03:08:01.148Z,9.87
2018-02-02T03:10:28.900Z,4.10
2018-02-02T03:12:56.628Z,5.87
2018-02-02T03:15:24.461Z,4.70
2018-02-02T03:17:52.128Z,6.03
2018-02-02T03:20:19.841Z,9.00
2018-02-02T03:22:47.521Z,9.30
2018-02-02T03:25:15.252Z,5.27
2018-02-02T03:27:42.938Z,4.80
2018-02-02T03:30:10.767Z,13.60
2018-02-02T03:32:38.526Z,6.43
2018-02-02T03:35:06.279Z,10.73
2018-02-02T03:37:34.110Z,5.00
2018-02-02T03:40:01.819Z,5.87
2018-02-02T03:42:29.592Z,6.27
2018-02-02T03:44:57.298Z,6.97
2018-02-02T03:47:25.376Z,7.23
2018-02-02T03:49:53.445Z,5.97
2018-02-02T03:52:21.133Z,13.87
2018-02-02T03:54:48.848Z,7.93
2018-02-02T03:57:16.571Z,8.40
2018-02-02T03:59:44.230Z,7.43
2018-02-02T04:02:11.996Z,11.60
2018-02-02T04:04:39.973Z,5.60
2018-02-02T04:07:07.720Z,5.03
2018-02-02T04:09:35.772Z,5.73
2018-02-02T04:12:03.507Z,6.07
2018-02-02T04:14:31.248Z,7.27
2018-02-02T04:16:58.946Z,6.93
2018-02-02T04:19:26.670Z,7.20
2018-02-02T04:21:54.414Z,9.30
2018-02-02T04:24:22.089Z,12.20
2018-02-02T04:26:49.827Z,9.30
2018-02-02T04:29:17.546Z,7.10
2018-02-02T04:31:45.316Z,7.20
2018-02-02T04:34:13.139Z,18.73
2018-02-02T04:36:40.939Z,9.30
2018-02-02T04:39:08.650Z,10.13
2018-02-02T04:41:36.364Z,11.80
2018-02-02T04:44:04.168Z,11.63
2018-02-02T04:46:31.874Z,15.70
2018-02-02T04:48:59.678Z,9.73
2018-02-02T04:51:27.373Z,16.20
2018-02-02T04:53:55.133Z,10.87
2018-02-02T04:56:22.809Z,7.47
2018-02-02T04:58:50.505Z,10.10
2018-02-02T05:01:18.344Z,6.27
2018-02-02T05:03:46.034Z,13.03
2018-02-02T05:06:13.812Z,12.40
2018-02-02T05:08:41.536Z,7.73
2018-02-02T05:11:09.205Z,22.53
2018-02-02T05:13:36.959Z,13.60
2018-02-02T05:16:04.812Z,8.83
2018-02-02T05:18:32.532Z,12.73
2018-02-02T05:21:00.255Z,11.13
2018-02-02T05:23:27.932Z,9.87
2018-02-02T05:25:55.666Z,5.53
2018-02-02T05:28:23.432Z,6.93
2018-02-02T05:30:51.168Z,7.77
2018-02-02T05:33:18.916Z,6.97
2018-02-02T05:35:46.614Z,10.93
2018-02-02T05:38:14.287Z,10.73
2018-02-02T05:40:42.083Z,21.60
2018-02-02T05:43:09.872Z,10.20
2018-02-02T05:45:37.564Z,11.90
2018-02-02T05:48:05.293Z,5.73
2018-02-02T05:50:33.046Z,8.10
2018-02-02T05:53:00.834Z,4.50
2018-02-02T05:55:28.565Z,17.13
2018-02-02T05:57:56.397Z,5.70
2018-02-02T06:00:24.167Z,4.70
2018-02-02T06:02:52.804Z,4.93
2018-02-02T06:05:20.557Z,6.97
2018-02-02T06:07:48.220Z,6.83
2018-02-02T06:10:15.951Z,5.60
2018-02-02T06:12:43.623Z,11.30
2018-02-02T06:15:11.382Z,5.13
2018-02-02T06:17:39.059Z,9.43
2018-02-02T06:20:06.797Z,10.80
2018-02-02T06:22:34.519Z,11.23
2018-02-02T06:25:02.301Z,7.17
2018-02-02T06:27:30.051Z,5.23
2018-02-02T06:29:57.850Z,9.50
2018-02-02T06:32:25.578Z,9.90
2018-02-02T06:34:53.312Z,10.73
2018-02-02T06:37:21.061Z,16.20
2018-02-02T06:39:48.771Z,18.43
2018-02-02T06:42:16.649Z,12.90
2018-02-02T06:44:44.334Z,11.97
2018-02-02T06:47:12.089Z,15.83
2018-02-02T06:49:39.917Z,12.60
2018-02-02T06:52:07.747Z,9.47
2018-02-02T06:54:35.731Z,9.80
2018-02-02T06:57:03.537Z,15.67
2018-02-02T06:59:31.316Z,13.93
2018-02-02T07:01:59.201Z,9.43
2018-02-02T07:04:26.876Z,9.70
2018-02-02T07:06:54.678Z,17.23
2018-02-02T07:09:22.441Z,17.07
2018-02-02T07:11:50.115Z,17.30
2018-02-02T07:14:17.836Z,25.33
2018-02-02T07:16:45.947Z,20.10
2018-02-02T07:19:13.683Z,25.77
2018-02-02T07:21:41.522Z,17.20
2018-02-02T07:24:09.338Z,22.70
2018-02-02T07:26:37.081Z,22.73
2018-02-02T07:29:04.778Z,14.57
2018-02-02T07:31:32.547Z,15.10
2018-02-02T07:34:00.259Z,16.20
2018-02-02T07:36:28.005Z,20.00
2018-02-02T07:38:55.749Z,12.20
2018-02-02T07:41:23.451Z,9.13
2018-02-02T07:43:51.182Z,8.60
2018-02-02T07:46:18.867Z,8.43
2018-02-02T07:48:46.626Z,9.60
2018-02-02T07:51:14.375Z,9.77
2018-02-02T07:53:42.295Z,9.37
2018-02-02T07:56:09.978Z,8.67
2018-02-02T07:58:37.698Z,9.20
2018-02-02T08:01:11.023Z,6.10
2018-02-02T08:03:38.871Z,7.90
2018-02-02T08:06:06.787Z,5.70
2018-02-02T08:08:34.488Z,7.13
2018-02-02T08:11:02.208Z,14.60
2018-02-02T08:13:29.957Z,7.73
2018-02-02T08:15:57.663Z,6.43
2018-02-02T08:18:25.356Z,8.23
2018-02-02T08:20:53.148Z,15.00
2018-02-02T08:23:20.898Z,9.90
2018-02-02T08:25:48.573Z,9.67
2018-02-02T08:28:16.328Z,15.73
2018-02-02T08:30:44.065Z,6.80
2018-02-02T08:33:11.756Z,9.23
2018-02-02T08:35:39.500Z,5.27
2018-02-02T08:38:07.193Z,9.87
2018-02-02T08:40:35.015Z,8.03
2018-02-02T08:43:02.697Z,5.40
2018-02-02T08:45:30.363Z,9.17
2018-02-02T08:47:58.171Z,13.57
2018-02-02T08:50:26.274Z,9.53
2018-02-02T08:52:54.337Z,6.57
2018-02-02T08:55:22.455Z,5.93
2018-02-02T08:57:50.504Z,7.23
2018-02-02T09:00:18.558Z,5.67
2018-02-02T09:02:46.646Z,4.93
2018-02-02T09:05:14.316Z,3.93
2018-02-02T09:07:42.130Z,7.83
2018-02-02T09:10:09.859Z,6.60
2018-02-02T09:12:37.602Z,5.23
2018-02-02T09:15:05.326Z,5.80
2018-02-02T09:17:33.177Z,8.60
2018-02-02T09:20:00.869Z,6.30
2018-02-02T09:22:28.626Z,9.50
2018-02-02T09:24:56.485Z,8.20
2018-02-02T09:27:23.721Z,6.23
2018-02-02T09:29:51.570Z,9.80
2018-02-02T09:32:19.521Z,8.30
2018-02-02T09:34:47.303Z,9.43
2018-02-02T09:37:15.167Z,7.77
2018-02-02T09:39:43.102Z,8.10
2018-02-02T09:42:10.852Z,7.20
2018-02-02T09:44:38.520Z,5.57
2018-02-02T09:47:06.271Z,5.90
2018-02-02T09:49:34.009Z,10.80
2018-02-02T09:52:01.739Z,7.83
2018-02-02T09:54:29.422Z,2.90
2018-02-02T09:56:57.170Z,2.83
2018-02-02T09:59:25.138Z,9.17
2018-02-02T10:01:53.210Z,4.63
2018-02-02T10:04:21.202Z,4.20
2018-02-02T10:06:49.042Z,2.90
2018-02-02T10:09:17.629Z,3.80
2018-02-02T10:11:45.623Z,12.10
2018-02-02T10:14:14.367Z,9.43
2018-02-02T10:16:42.289Z,6.27
2018-02-02T10:19:10.179Z,3.67
2018-02-02T10:21:38.167Z,6.00
2018-02-02T10:24:06.064Z,2.93
2018-02-02T10:26:33.928Z,9.77
2018-02-02T10:29:01.975Z,4.70
2018-02-02T10:31:30.013Z,4.83
2018-02-02T10:33:57.972Z,3.40
2018-02-02T10:36:25.830Z,9.87
2018-02-02T10:38:54.664Z,7.90
2018-02-02T10:41:22.659Z,7.57
2018-02-02T10:43:50.531Z,12.70
2018-02-02T10:46:18.397Z,21.03
2018-02-02T10:48:46.232Z,16.60
2018-02-02T10:51:15.469Z,13.73
2018-02-02T10:53:43.515Z,12.73
2018-02-02T10:56:12.407Z,15.27
2018-02-02T10:58:40.451Z,9.00
2018-02-02T11:04:09.592Z,5.57
2018-02-02T11:06:37.703Z,6.47
2018-02-02T11:09:05.628Z,14.87
2018-02-02T11:11:33.495Z,7.10
2018-02-02T11:14:01.363Z,10.07
2018-02-02T11:16:29.731Z,17.67
2018-02-02T11:18:57.847Z,9.60
2018-02-02T11:21:25.864Z,12.23
2018-02-02T11:23:53.997Z,6.47
2018-02-02T11:26:22.796Z,14.73
2018-02-02T11:28:50.663Z,10.70
2018-02-02T11:31:18.528Z,3.60
2018-02-02T11:33:46.549Z,6.70
2018-02-02T11:36:14.555Z,6.17
2018-02-02T11:38:42.622Z,5.23
2018-02-02T11:41:10.398Z,6.43
2018-02-02T11:43:38.517Z,5.77
2018-02-02T11:46:06.588Z,9.97
2018-02-02T11:48:34.576Z,13.43
2018-02-02T11:51:02.377Z,6.50
2018-02-02T11:53:30.395Z,5.33
2018-02-02T11:55:58.514Z,5.60
2018-02-02T11:58:28.417Z,4.10
2018-02-02T12:00:56.602Z,8.20
2018-02-02T12:03:25.324Z,5.27
2018-02-02T12:05:54.567Z,5.57
2018-02-02T12:08:22.866Z,10.17
2018-02-02T12:10:50.924Z,6.37
2018-02-02T12:13:18.926Z,8.67
2018-02-02T12:15:47.085Z,5.03
2018-02-02T12:18:15.355Z,11.40
2018-02-02T12:20:44.324Z,13.93
2018-02-02T12:23:23.090Z,11.10
2018-02-02T12:25:56.653Z,8.50
2018-02-02T12:28:30.247Z,15.60
2018-02-02T12:31:09.205Z,5.77
2018-02-02T12:36:41.398Z,6.43
2018-02-02T12:39:09.363Z,7.50
2018-02-02T12:41:37.404Z,11.33
2018-02-02T12:44:05.404Z,7.23
2018-02-02T12:46:34.297Z,6.43
2018-02-02T12:49:06.055Z,5.40
2018-02-02T12:51:34.229Z,3.03
2018-02-02T12:54:02.162Z,7.83
2018-02-02T12:56:30.029Z,7.00
2018-02-02T12:58:57.893Z,3.50
2018-02-02T13:01:26.006Z,8.23
2018-02-02T13:03:53.952Z,9.07
2018-02-02T13:06:21.994Z,5.17
2018-02-02T13:08:50.128Z,3.50
2018-02-02T13:11:18.054Z,3.87
2018-02-02T13:13:45.920Z,7.27
2018-02-02T13:16:14.967Z,6.83
2018-02-02T13:18:42.718Z,5.97
2018-02-02T13:21:11.975Z,18.07
2018-02-02T13:23:40.063Z,5.43
2018-02-02T13:26:08.159Z,3.50
2018-02-02T13:28:36.220Z,5.40
2018-02-02T13:31:04.304Z,7.50
2018-02-02T13:33:32.205Z,7.60
2018-02-02T13:36:00.200Z,8.40
2018-02-02T13:38:28.067Z,5.73
2018-02-02T13:40:56.159Z,11.40
2018-02-02T13:43:24.001Z,6.23
2018-02-02T13:45:52.121Z,15.83
2018-02-02T13:48:20.079Z,5.87
2018-02-02T13:50:47.908Z,12.47
2018-02-02T13:53:15.738Z,8.83
2018-02-02T13:55:43.795Z,7.20
2018-02-02T13:58:12.452Z,6.37
2018-02-02T14:00:41.367Z,5.63
2018-02-02T14:03:09.251Z,4.80
2018-02-02T14:05:37.952Z,8.03
2018-02-02T14:08:05.998Z,5.70
2018-02-02T14:10:34.014Z,8.23
2018-02-02T14:13:01.782Z,3.30
2018-02-02T14:15:29.897Z,3.87
2018-02-02T14:17:58.186Z,7.53
2018-02-02T14:20:26.105Z,2.77
2018-02-02T14:22:56.138Z,3.37
2018-02-02T14:25:24.243Z,5.10
2018-02-02T14:27:52.320Z,6.90
2018-02-02T14:30:20.757Z,11.87
2018-02-02T14:32:49.083Z,10.13
2018-02-02T14:35:17.113Z,15.83
2018-02-02T14:37:45.862Z,11.57
2018-02-02T14:40:14.919Z,8.47
2018-02-02T14:42:44.709Z,5.67
2018-02-02T14:45:12.708Z,4.87
2018-02-02T14:47:40.769Z,7.60
2018-02-02T14:50:08.852Z,18.50
2018-02-02T14:52:38.029Z,24.37
2018-02-02T14:55:06.226Z,14.03
2018-02-02T14:57:35.937Z,15.40
2018-02-02T15:00:04.202Z,16.80
2018-02-02T15:02:33.112Z,11.70
2018-02-02T15:05:01.235Z,11.30
2018-02-02T15:07:29.256Z,15.93
2018-02-02T15:09:57.273Z,14.13
2018-02-02T15:12:25.413Z,16.70
2018-02-02T15:14:53.461Z,16.30
2018-02-02T15:17:23.201Z,19.20
2018-02-02T15:19:52.888Z,13.63
2018-02-02T15:22:22.859Z,13.70
2018-02-02T15:24:51.147Z,15.00
2018-02-02T15:27:19.039Z,7.83
2018-02-02T15:29:47.311Z,17.50
2018-02-02T15:32:15.394Z,11.07
2018-02-02T15:34:43.446Z,8.43
2018-02-02T15:37:12.531Z,9.87
2018-02-02T15:39:41.302Z,8.63
2018-02-02T15:42:09.319Z,7.80
2018-02-02T15:44:37.258Z,10.27
2018-02-02T15:47:05.348Z,4.70
2018-02-02T15:49:34.241Z,6.20
2018-02-02T15:52:02.125Z,5.70
2018-02-02T15:54:30.190Z,3.20
2018-02-02T15:56:58.266Z,4.33
2018-02-02T15:59:27.972Z,6.10
2018-02-02T16:01:56.045Z,10.33
2018-02-02T16:04:24.069Z,15.63
2018-02-02T16:06:52.985Z,18.20
2018-02-02T16:09:21.795Z,10.63
2018-02-02T16:11:49.842Z,12.43
2018-02-02T16:14:17.939Z,16.50
2018-02-02T16:16:45.878Z,12.50
2018-02-02T16:19:13.880Z,11.93
2018-02-02T16:21:41.944Z,12.43
2018-02-02T16:24:10.025Z,8.50
2018-02-02T16:26:38.199Z,6.00
2018-02-02T16:29:06.192Z,7.03
2018-02-02T16:31:35.158Z,7.77
2018-02-02T16:34:03.131Z,13.53
2018-02-02T16:36:31.203Z,7.07
2018-02-02T16:38:59.332Z,18.83
2018-02-02T16:41:27.534Z,8.77
2018-02-02T16:43:55.690Z,8.67
2018-02-02T16:46:23.680Z,10.83
2018-02-02T16:48:51.623Z,9.53
2018-02-02T16:51:19.551Z,10.43
2018-02-02T16:53:47.605Z,15.40
2018-02-02T16:56:16.600Z,14.30
2018-02-02T16:58:44.474Z,14.30
2018-02-02T17:01:12.544Z,14.10
2018-02-02T17:03:40.609Z,10.97
2018-02-02T17:06:08.713Z,14.67
2018-02-02T17:08:37.842Z,10.10
2018-02-02T17:11:05.852Z,4.17
2018-02-02T17:13:33.918Z,1.40
2018-02-02T17:16:01.797Z,4.30
2018-02-02T17:18:29.886Z,2.60
2018-02-02T17:20:58.700Z,3.80
2018-02-02T17:23:27.500Z,2.00
2018-02-02T17:25:55.610Z,2.23
2018-02-02T17:28:23.620Z,4.13
2018-02-02T17:30:51.537Z,5.47
2018-02-02T17:33:19.581Z,3.20
2018-02-02T17:35:47.675Z,1.40
2018-02-02T17:38:16.337Z,6.03
2018-02-02T17:40:45.088Z,1.17
2018-02-02T17:43:12.996Z,2.20
2018-02-02T17:45:41.009Z,1.07
2018-02-02T17:48:08.987Z,1.20
2018-02-02T17:50:37.023Z,1.30
2018-02-02T17:53:05.324Z,2.40
2018-02-02T17:55:33.230Z,1.47
2018-02-02T17:58:03.928Z,2.23
2018-02-02T18:03:34.790Z,2.43
2018-02-02T18:06:03.470Z,6.43
2018-02-02T18:08:31.544Z,6.80
2018-02-02T18:10:59.619Z,3.90
2018-02-02T18:13:27.689Z,3.70
2018-02-02T18:15:55.750Z,8.20
2018-02-02T18:18:23.830Z,7.23
2018-02-02T18:20:51.664Z,3.43
2018-02-02T18:23:19.664Z,4.23
2018-02-02T18:25:47.738Z,3.17
2018-02-02T18:28:16.220Z,3.80
2018-02-02T18:30:45.218Z,3.60
2018-02-02T18:33:13.968Z,3.67
2018-02-02T18:35:41.972Z,3.50
2018-02-02T18:38:10.029Z,5.90
2018-02-02T18:40:38.071Z,7.40
2018-02-02T18:43:06.618Z,2.77
2018-02-02T18:45:34.875Z,4.80
2018-02-02T18:48:04.344Z,3.93
2018-02-02T18:50:33.289Z,4.00
2018-02-02T18:53:03.204Z,8.40
2018-02-02T18:55:32.369Z,2.13
2018-02-02T18:58:00.458Z,3.67
2018-02-02T19:00:28.763Z,7.17
2018-02-02T19:02:57.934Z,6.30
2018-02-02T19:05:26.780Z,5.83
2018-02-02T19:07:55.631Z,5.97
2018-02-02T19:10:23.649Z,5.30
2018-02-02T19:12:52.879Z,5.60
2018-02-02T19:15:22.086Z,5.70
2018-02-02T19:17:50.410Z,3.37
2018-02-02T19:20:18.835Z,3.40
2018-02-02T19:22:46.857Z,3.50
2018-02-02T19:25:14.728Z,8.13
2018-02-02T19:27:43.159Z,5.13
2018-02-02T19:30:14.093Z,4.07
2018-02-02T19:32:42.472Z,5.17
2018-02-02T19:35:10.618Z,3.67
2018-02-02T19:37:38.849Z,5.27
2018-02-02T19:40:08.125Z,7.23
2018-02-02T19:42:37.482Z,5.77
2018-02-02T19:45:06.055Z,10.27
2018-02-02T19:47:34.158Z,8.50
2018-02-02T19:50:03.089Z,18.27
2018-02-02T19:52:30.997Z,9.43
2018-02-02T19:54:58.969Z,7.77
2018-02-02T19:57:26.745Z,6.80
2018-02-02T19:59:54.619Z,6.97
2018-02-02T20:02:22.362Z,8.23
2018-02-02T20:04:50.818Z,9.10
2018-02-02T20:07:18.657Z,3.90
2018-02-02T20:09:46.538Z,8.40
2018-02-02T20:12:14.264Z,4.60
2018-02-02T20:14:43.084Z,5.60
2018-02-02T20:17:10.976Z,8.37
2018-02-02T20:19:38.723Z,6.07
2018-02-02T20:22:06.521Z,4.60
2018-02-02T20:24:35.409Z,8.50
2018-02-02T20:27:03.645Z,6.17
2018-02-02T20:29:32.788Z,6.20
2018-02-02T20:32:00.934Z,4.70
2018-02-02T20:34:28.940Z,10.23
2018-02-02T20:36:56.721Z,6.83
2018-02-02T20:39:25.349Z,5.40
2018-02-02T20:41:55.128Z,5.10
2018-02-02T20:44:24.897Z,9.80
2018-02-02T20:46:53.435Z,10.53
2018-02-02T20:49:22.618Z,15.17
2018-02-02T20:51:50.892Z,19.53
2018-02-02T20:54:18.808Z,70.30
2018-02-02T20:56:48.073Z,47.53
2018-02-02T20:59:16.163Z,195.83
2018-02-02T21:01:44.305Z,38.40
2018-02-02T21:04:12.399Z,54.50
2018-02-02T21:06:41.443Z,47.33
2018-02-02T21:09:09.288Z,30.40
2018-02-02T21:11:37.579Z,35.57
2018-02-02T21:14:05.273Z,35.53
2018-02-02T21:16:33.463Z,32.17
2018-02-02T21:19:03.303Z,34.97
2018-02-02T21:21:31.571Z,35.63
2018-02-02T21:24:03.423Z,28.40
2018-02-02T21:26:31.392Z,28.17
2018-02-02T21:28:59.841Z,27.10
2018-02-02T21:31:27.917Z,20.17
2018-02-02T21:33:56.079Z,28.03
2018-02-02T21:36:24.070Z,17.03
2018-02-02T21:38:53.662Z,21.77
2018-02-02T21:41:21.423Z,18.57
2018-02-02T21:43:49.222Z,16.63
2018-02-02T21:46:17.824Z,15.13
2018-02-02T21:48:45.884Z,22.00
2018-02-02T21:51:13.956Z,15.87
2018-02-02T21:53:42.015Z,10.40
2018-02-02T21:56:10.099Z,9.30
2018-02-02T21:58:38.023Z,12.20
2018-02-02T22:01:05.835Z,14.70
2018-02-02T22:03:33.868Z,18.27
2018-02-02T22:06:01.878Z,21.57
2018-02-02T22:08:30.735Z,18.00
2018-02-02T22:10:59.231Z,42.40
2018-02-02T22:13:27.043Z,28.07
2018-02-02T22:15:54.773Z,23.60
2018-02-02T22:18:22.951Z,36.73
2018-02-02T22:20:50.877Z,67.77
2018-02-02T22:23:18.771Z,39.27
2018-02-02T22:25:46.863Z,30.13
2018-02-02T22:28:14.889Z,26.00
2018-02-02T22:30:42.795Z,25.73
2018-02-02T22:33:11.390Z,24.90
2018-02-02T22:35:39.334Z,32.17
2018-02-02T22:38:07.247Z,41.47
2018-02-02T22:40:35.393Z,29.93
2018-02-02T22:43:03.481Z,32.77
2018-02-02T22:45:31.471Z,34.90
2018-02-02T22:47:59.316Z,33.13
2018-02-02T22:50:27.449Z,43.50
2018-02-02T22:52:55.544Z,41.30
2018-02-02T22:55:24.512Z,38.37
2018-02-02T22:57:52.519Z,31.13
2018-02-02T23:00:20.448Z,20.23
2018-02-02T23:02:48.558Z,21.47
2018-02-02T23:05:17.429Z,21.40
2018-02-02T23:07:45.294Z,19.40
2018-02-02T23:10:13.385Z,14.00
2018-02-02T23:12:41.458Z,15.27
2018-02-02T23:15:09.371Z,15.27
2018-02-02T23:17:37.398Z,15.87
2018-02-02T23:20:05.474Z,16.87
2018-02-02T23:22:33.522Z,13.93
2018-02-02T23:25:01.566Z,11.40
2018-02-02T23:27:30.507Z,9.93
2018-02-02T23:29:58.524Z,7.97
2018-02-02T23:32:26.614Z,8.83
2018-02-02T23:34:54.718Z,9.33
2018-02-02T23:37:22.789Z,10.03
2018-02-02T23:39:50.864Z,3.90
2018-02-02T23:42:18.906Z,2.63
2018-02-02T23:44:46.847Z,4.57
2018-02-02T23:47:14.766Z,5.40
2018-02-02T23:49:43.561Z,5.00
2018-02-02T23:52:11.377Z,2.77
2018-02-02T23:54:39.345Z,4.53
2018-02-02T23:57:07.583Z,3.73
2018-02-02T23:59:35.375Z,5.43
